Terminal Aerodrome Forecast
Issued by NWS

Home | Current Version | Previous Version | Text Only | Print | Product List | Glossary On
Versions: 1 2 3 4 5 6 7 8 9 10 11 12 13 14 15 16 17 18
000
FTUS41 KGYX 161726
TAFLEB
TAF
KLEB 161726Z 1618/1718 00000KT P6SM OVC040
     FM170300 00000KT 1 1/2SM -SN OVC015
     FM170600 00000KT 1SM -SN OVC005=

USA.gov is the U.S. government's official web portal to all federal, state and local government web resources and services.